Aviation Digital Data Service (ADDS)

Output produced by METARs form (2111 UTC 20 August 2019)
found at http://www.aviationweather.gov/metar/data/
 
METAR text: OIZB 202100Z 33019KT CAVOK 28/05 Q1006
Conditions at: OIZB (ZABOL , IR) observed 2100 UTC 20 August 2019
Temperature: 28.0°C (82°F)
Dewpoint: 5.0°C (41°F) [RH = 23%]
Pressure (altimeter): 29.70 inches Hg (1006.0 mb)
Winds: from the NNW (330 degrees) at 22 MPH (19 knots; 9.8 m/s)
Visibility: 6 or more miles (10+ km)
Ceiling: ceiling and visibility are OK
Clouds: unknown
Weather: no significant weather observed at this time

METAR text: OIZB 202000Z 33019KT CAVOK 28/05 Q1007
Conditions at: OIZB (ZABOL , IR) observed 2000 UTC 20 August 2019
Temperature: 28.0°C (82°F)
Dewpoint: 5.0°C (41°F) [RH = 23%]
Pressure (altimeter): 29.73 inches Hg (1007.0 mb)
Winds: from the NNW (330 degrees) at 22 MPH (19 knots; 9.8 m/s)
Visibility: 6 or more miles (10+ km)
Ceiling: ceiling and visibility are OK
Clouds: unknown
Weather: no significant weather observed at this time

METAR text: OIZB 201900Z 33018KT CAVOK 29/05 Q1007
Conditions at: OIZB (ZABOL , IR) observed 1900 UTC 20 August 2019
Temperature: 29.0°C (84°F)
Dewpoint: 5.0°C (41°F) [RH = 22%]
Pressure (altimeter): 29.73 inches Hg (1007.0 mb)
Winds: from the NNW (330 degrees) at 21 MPH (18 knots; 9.3 m/s)
Visibility: 6 or more miles (10+ km)
Ceiling: ceiling and visibility are OK
Clouds: unknown
Weather: no significant weather observed at this time

METAR text: OIZB 201800Z 34021KT CAVOK 31/03 Q1007
Conditions at: OIZB (ZABOL , IR) observed 1800 UTC 20 August 2019
Temperature: 31.0°C (88°F)
Dewpoint: 3.0°C (37°F) [RH = 17%]
Pressure (altimeter): 29.73 inches Hg (1007.0 mb)
Winds: from the NNW (340 degrees) at 24 MPH (21 knots; 10.8 m/s)
Visibility: 6 or more miles (10+ km)
Ceiling: ceiling and visibility are OK
Clouds: unknown
Weather: no significant weather observed at this time

METAR text: OIZB 201700Z 34021KT CAVOK 32/03 Q1007
Conditions at: OIZB (ZABOL , IR) observed 1700 UTC 20 August 2019
Temperature: 32.0°C (90°F)
Dewpoint: 3.0°C (37°F) [RH = 16%]
Pressure (altimeter): 29.73 inches Hg (1007.0 mb)
Winds: from the NNW (340 degrees) at 24 MPH (21 knots; 10.8 m/s)
Visibility: 6 or more miles (10+ km)
Ceiling: ceiling and visibility are OK
Clouds: unknown
Weather: no significant weather observed at this time

METAR text: OIZB 201600Z 34016KT CAVOK 33/02 Q1006
Conditions at: OIZB (ZABOL , IR) observed 1600 UTC 20 August 2019
Temperature: 33.0°C (91°F)
Dewpoint: 2.0°C (36°F) [RH = 14%]
Pressure (altimeter): 29.70 inches Hg (1006.0 mb)
Winds: from the NNW (340 degrees) at 18 MPH (16 knots; 8.2 m/s)
Visibility: 6 or more miles (10+ km)
Ceiling: ceiling and visibility are OK
Clouds: unknown
Weather: no significant weather observed at this time

METAR text: OIZB 201500Z 34016KT CAVOK 34/03 Q1006
Conditions at: OIZB (ZABOL , IR) observed 1500 UTC 20 August 2019
Temperature: 34.0°C (93°F)
Dewpoint: 3.0°C (37°F) [RH = 14%]
Pressure (altimeter): 29.70 inches Hg (1006.0 mb)
Winds: from the NNW (340 degrees) at 18 MPH (16 knots; 8.2 m/s)
Visibility: 6 or more miles (10+ km)
Ceiling: ceiling and visibility are OK
Clouds: unknown
Weather: no significant weather observed at this time

METAR text: OIZB 201400Z 33019KT CAVOK 37/03 Q1005
Conditions at: OIZB (ZABOL , IR) observed 1400 UTC 20 August 2019
Temperature: 37.0°C (99°F)
Dewpoint: 3.0°C (37°F) [RH = 12%]
Pressure (altimeter): 29.68 inches Hg (1005.0 mb)
Winds: from the NNW (330 degrees) at 22 MPH (19 knots; 9.8 m/s)
Visibility: 6 or more miles (10+ km)
Ceiling: ceiling and visibility are OK
Clouds: unknown
Weather: no significant weather observed at this time

METAR text: OIZB 201300Z 33021G31KT CAVOK 39/02 Q1005
Conditions at: OIZB (ZABOL , IR) observed 1300 UTC 20 August 2019
Temperature: 39.0°C (102°F)
Dewpoint: 2.0°C (36°F) [RH = 10%]
Pressure (altimeter): 29.68 inches Hg (1005.0 mb)
Winds: from the NNW (330 degrees) at 24 MPH (21 knots; 10.8 m/s)
gusting to 36 MPH (31 knots; 15.9 m/s)
Visibility: 6 or more miles (10+ km)
Ceiling: ceiling and visibility are OK
Clouds: unknown
Weather: no significant weather observed at this time

METAR text: OIZB 201200Z 33018KT CAVOK 39/00 Q1005
Conditions at: OIZB (ZABOL , IR) observed 1200 UTC 20 August 2019
Temperature: 39.0°C (102°F)
Dewpoint: 0.0°C (32°F) [RH =  9%]
Pressure (altimeter): 29.68 inches Hg (1005.0 mb)
Winds: from the NNW (330 degrees) at 21 MPH (18 knots; 9.3 m/s)
Visibility: 6 or more miles (10+ km)
Ceiling: ceiling and visibility are OK
Clouds: unknown
Weather: no significant weather observed at this time

METAR text: OIZB 201100Z 33019KT CAVOK 39/01 Q1005
Conditions at: OIZB (ZABOL , IR) observed 1100 UTC 20 August 2019
Temperature: 39.0°C (102°F)
Dewpoint: 1.0°C (34°F) [RH =  9%]
Pressure (altimeter): 29.68 inches Hg (1005.0 mb)
Winds: from the NNW (330 degrees) at 22 MPH (19 knots; 9.8 m/s)
Visibility: 6 or more miles (10+ km)
Ceiling: ceiling and visibility are OK
Clouds: unknown
Weather: no significant weather observed at this time

METAR text: OIZB 201000Z 33023KT CAVOK 39/01 Q1006
Conditions at: OIZB (ZABOL , IR) observed 1000 UTC 20 August 2019
Temperature: 39.0°C (102°F)
Dewpoint: 1.0°C (34°F) [RH =  9%]
Pressure (altimeter): 29.70 inches Hg (1006.0 mb)
Winds: from the NNW (330 degrees) at 26 MPH (23 knots; 11.8 m/s)
Visibility: 6 or more miles (10+ km)
Ceiling: ceiling and visibility are OK
Clouds: unknown
Weather: no significant weather observed at this time

METAR text: OIZB 200900Z 34023KT CAVOK 39/02 Q1006
Conditions at: OIZB (ZABOL , IR) observed 0900 UTC 20 August 2019
Temperature: 39.0°C (102°F)
Dewpoint: 2.0°C (36°F) [RH = 10%]
Pressure (altimeter): 29.70 inches Hg (1006.0 mb)
Winds: from the NNW (340 degrees) at 26 MPH (23 knots; 11.8 m/s)
Visibility: 6 or more miles (10+ km)
Ceiling: ceiling and visibility are OK
Clouds: unknown
Weather: no significant weather observed at this time

METAR text: OIZB 200800Z 35029G39KT 6000 NSC 38/03 Q1007
Conditions at: OIZB (ZABOL , IR) observed 0800 UTC 20 August 2019
Temperature: 38.0°C (100°F)
Dewpoint: 3.0°C (37°F) [RH = 11%]
Pressure (altimeter): 29.73 inches Hg (1007.0 mb)
Winds: from the N (350 degrees) at 33 MPH (29 knots; 14.9 m/s)
gusting to 45 MPH (39 knots; 20.1 m/s)
Visibility: 4 miles ( 6 km)
Ceiling: at least 12,000 feet AGL
Clouds: sky clear below 12,000 feet AGL
Weather: no significant weather observed at this time

METAR text: OIZB 200700Z 34031G41KT 6000 NSC 36/04 Q1008
Conditions at: OIZB (ZABOL , IR) observed 0700 UTC 20 August 2019
Temperature: 36.0°C (97°F)
Dewpoint: 4.0°C (39°F) [RH = 14%]
Pressure (altimeter): 29.76 inches Hg (1008.0 mb)
Winds: from the NNW (340 degrees) at 36 MPH (31 knots; 15.9 m/s)
gusting to 47 MPH (41 knots; 21.1 m/s)
Visibility: 4 miles ( 6 km)
Ceiling: at least 12,000 feet AGL
Clouds: sky clear below 12,000 feet AGL
Weather: no significant weather observed at this time

METAR text: OIZB 200600Z 35031G41KT 6000 NSC 34/03 Q1008
Conditions at: OIZB (ZABOL , IR) observed 0600 UTC 20 August 2019
Temperature: 34.0°C (93°F)
Dewpoint: 3.0°C (37°F) [RH = 14%]
Pressure (altimeter): 29.76 inches Hg (1008.0 mb)
Winds: from the N (350 degrees) at 36 MPH (31 knots; 15.9 m/s)
gusting to 47 MPH (41 knots; 21.1 m/s)
Visibility: 4 miles ( 6 km)
Ceiling: at least 12,000 feet AGL
Clouds: sky clear below 12,000 feet AGL
Weather: no significant weather observed at this time

METAR text: OIZB 200500Z 34027G39KT 5000 SA NSC 31/03 Q1009
Conditions at: OIZB (ZABOL , IR) observed 0500 UTC 20 August 2019
Temperature: 31.0°C (88°F)
Dewpoint: 3.0°C (37°F) [RH = 17%]
Pressure (altimeter): 29.79 inches Hg (1009.0 mb)
Winds: from the NNW (340 degrees) at 31 MPH (27 knots; 13.9 m/s)
gusting to 45 MPH (39 knots; 20.1 m/s)
Visibility: 3 miles ( 5 km)
Ceiling: at least 12,000 feet AGL
Clouds: sky clear below 12,000 feet AGL
Weather: SA  (sand)

METAR text: OIZB 200400Z 34025G37KT 7000 NSC 29/03 Q1009
Conditions at: OIZB (ZABOL , IR) observed 0400 UTC 20 August 2019
Temperature: 29.0°C (84°F)
Dewpoint: 3.0°C (37°F) [RH = 19%]
Pressure (altimeter): 29.79 inches Hg (1009.0 mb)
Winds: from the NNW (340 degrees) at 29 MPH (25 knots; 12.9 m/s)
gusting to 43 MPH (37 knots; 19.0 m/s)
Visibility: 4 miles ( 7 km)
Ceiling: at least 12,000 feet AGL
Clouds: sky clear below 12,000 feet AGL
Weather: no significant weather observed at this time

METAR text: OIZB 200300Z 33021KT CAVOK 27/03 Q1009
Conditions at: OIZB (ZABOL , IR) observed 0300 UTC 20 August 2019
Temperature: 27.0°C (81°F)
Dewpoint: 3.0°C (37°F) [RH = 21%]
Pressure (altimeter): 29.79 inches Hg (1009.0 mb)
Winds: from the NNW (330 degrees) at 24 MPH (21 knots; 10.8 m/s)
Visibility: 6 or more miles (10+ km)
Ceiling: ceiling and visibility are OK
Clouds: unknown
Weather: no significant weather observed at this time

METAR text: OIZB 200200Z 32016KT CAVOK 26/04 Q1008
Conditions at: OIZB (ZABOL , IR) observed 0200 UTC 20 August 2019
Temperature: 26.0°C (79°F)
Dewpoint: 4.0°C (39°F) [RH = 24%]
Pressure (altimeter): 29.76 inches Hg (1008.0 mb)
Winds: from the NW (320 degrees) at 18 MPH (16 knots; 8.2 m/s)
Visibility: 6 or more miles (10+ km)
Ceiling: ceiling and visibility are OK
Clouds: unknown
Weather: no significant weather observed at this time

METAR text: OIZB 200000Z 34019KT CAVOK 27/03 Q1006
Conditions at: OIZB (ZABOL , IR) observed 0000 UTC 20 August 2019
Temperature: 27.0°C (81°F)
Dewpoint: 3.0°C (37°F) [RH = 21%]
Pressure (altimeter): 29.70 inches Hg (1006.0 mb)
Winds: from the NNW (340 degrees) at 22 MPH (19 knots; 9.8 m/s)
Visibility: 6 or more miles (10+ km)
Ceiling: ceiling and visibility are OK
Clouds: unknown
Weather: no significant weather observed at this time

METAR text: OIZB 192100Z 33021KT CAVOK 28/03 Q1006
Conditions at: OIZB (ZABOL , IR) observed 2100 UTC 19 August 2019
Temperature: 28.0°C (82°F)
Dewpoint: 3.0°C (37°F) [RH = 20%]
Pressure (altimeter): 29.70 inches Hg (1006.0 mb)
Winds: from the NNW (330 degrees) at 24 MPH (21 knots; 10.8 m/s)
Visibility: 6 or more miles (10+ km)
Ceiling: ceiling and visibility are OK
Clouds: unknown
Weather: no significant weather observed at this time

METAR text: OIZB 192000Z 33016KT CAVOK 28/04 Q1007
Conditions at: OIZB (ZABOL , IR) observed 2000 UTC 19 August 2019
Temperature: 28.0°C (82°F)
Dewpoint: 4.0°C (39°F) [RH = 22%]
Pressure (altimeter): 29.73 inches Hg (1007.0 mb)
Winds: from the NNW (330 degrees) at 18 MPH (16 knots; 8.2 m/s)
Visibility: 6 or more miles (10+ km)
Ceiling: ceiling and visibility are OK
Clouds: unknown
Weather: no significant weather observed at this time

METAR text: OIZB 191900Z 34025KT CAVOK 30/03 Q1007
Conditions at: OIZB (ZABOL , IR) observed 1900 UTC 19 August 2019
Temperature: 30.0°C (86°F)
Dewpoint: 3.0°C (37°F) [RH = 18%]
Pressure (altimeter): 29.73 inches Hg (1007.0 mb)
Winds: from the NNW (340 degrees) at 29 MPH (25 knots; 12.9 m/s)
Visibility: 6 or more miles (10+ km)
Ceiling: ceiling and visibility are OK
Clouds: unknown
Weather: no significant weather observed at this time

METAR text: OIZB 191800Z 34023KT CAVOK 31/02 Q1007
Conditions at: OIZB (ZABOL , IR) observed 1800 UTC 19 August 2019
Temperature: 31.0°C (88°F)
Dewpoint: 2.0°C (36°F) [RH = 16%]
Pressure (altimeter): 29.73 inches Hg (1007.0 mb)
Winds: from the NNW (340 degrees) at 26 MPH (23 knots; 11.8 m/s)
Visibility: 6 or more miles (10+ km)
Ceiling: ceiling and visibility are OK
Clouds: unknown
Weather: no significant weather observed at this time

METAR text: OIZB 191700Z 34019KT CAVOK 31/02 Q1007
Conditions at: OIZB (ZABOL , IR) observed 1700 UTC 19 August 2019
Temperature: 31.0°C (88°F)
Dewpoint: 2.0°C (36°F) [RH = 16%]
Pressure (altimeter): 29.73 inches Hg (1007.0 mb)
Winds: from the NNW (340 degrees) at 22 MPH (19 knots; 9.8 m/s)
Visibility: 6 or more miles (10+ km)
Ceiling: ceiling and visibility are OK
Clouds: unknown
Weather: no significant weather observed at this time

METAR text: OIZB 191600Z 33018KT CAVOK 32/01 Q1006
Conditions at: OIZB (ZABOL , IR) observed 1600 UTC 19 August 2019
Temperature: 32.0°C (90°F)
Dewpoint: 1.0°C (34°F) [RH = 14%]
Pressure (altimeter): 29.70 inches Hg (1006.0 mb)
Winds: from the NNW (330 degrees) at 21 MPH (18 knots; 9.3 m/s)
Visibility: 6 or more miles (10+ km)
Ceiling: ceiling and visibility are OK
Clouds: unknown
Weather: no significant weather observed at this time

METAR text: OIZB 191500Z 33014KT CAVOK 33/02 Q1005
Conditions at: OIZB (ZABOL , IR) observed 1500 UTC 19 August 2019
Temperature: 33.0°C (91°F)
Dewpoint: 2.0°C (36°F) [RH = 14%]
Pressure (altimeter): 29.68 inches Hg (1005.0 mb)
Winds: from the NNW (330 degrees) at 16 MPH (14 knots; 7.2 m/s)
Visibility: 6 or more miles (10+ km)
Ceiling: ceiling and visibility are OK
Clouds: unknown
Weather: no significant weather observed at this time

METAR text: OIZB 191400Z 34021KT CAVOK 36/02 Q1004
Conditions at: OIZB (ZABOL , IR) observed 1400 UTC 19 August 2019
Temperature: 36.0°C (97°F)
Dewpoint: 2.0°C (36°F) [RH = 12%]
Pressure (altimeter): 29.65 inches Hg (1004.0 mb)
Winds: from the NNW (340 degrees) at 24 MPH (21 knots; 10.8 m/s)
Visibility: 6 or more miles (10+ km)
Ceiling: ceiling and visibility are OK
Clouds: unknown
Weather: no significant weather observed at this time

METAR text: OIZB 191300Z 34021KT CAVOK 38/01 Q1004
Conditions at: OIZB (ZABOL , IR) observed 1300 UTC 19 August 2019
Temperature: 38.0°C (100°F)
Dewpoint: 1.0°C (34°F) [RH = 10%]
Pressure (altimeter): 29.65 inches Hg (1004.0 mb)
Winds: from the NNW (340 degrees) at 24 MPH (21 knots; 10.8 m/s)
Visibility: 6 or more miles (10+ km)
Ceiling: ceiling and visibility are OK
Clouds: unknown
Weather: no significant weather observed at this time

METAR text: OIZB 191200Z 33021KT CAVOK 38/01 Q1004
Conditions at: OIZB (ZABOL , IR) observed 1200 UTC 19 August 2019
Temperature: 38.0°C (100°F)
Dewpoint: 1.0°C (34°F) [RH = 10%]
Pressure (altimeter): 29.65 inches Hg (1004.0 mb)
Winds: from the NNW (330 degrees) at 24 MPH (21 knots; 10.8 m/s)
Visibility: 6 or more miles (10+ km)
Ceiling: ceiling and visibility are OK
Clouds: unknown
Weather: no significant weather observed at this time

METAR text: OIZB 191100Z 33021KT CAVOK 38/01 Q1005
Conditions at: OIZB (ZABOL , IR) observed 1100 UTC 19 August 2019
Temperature: 38.0°C (100°F)
Dewpoint: 1.0°C (34°F) [RH = 10%]
Pressure (altimeter): 29.68 inches Hg (1005.0 mb)
Winds: from the NNW (330 degrees) at 24 MPH (21 knots; 10.8 m/s)
Visibility: 6 or more miles (10+ km)
Ceiling: ceiling and visibility are OK
Clouds: unknown
Weather: no significant weather observed at this time

METAR text: OIZB 191000Z 34023KT CAVOK 38/01 Q1005
Conditions at: OIZB (ZABOL , IR) observed 1000 UTC 19 August 2019
Temperature: 38.0°C (100°F)
Dewpoint: 1.0°C (34°F) [RH = 10%]
Pressure (altimeter): 29.68 inches Hg (1005.0 mb)
Winds: from the NNW (340 degrees) at 26 MPH (23 knots; 11.8 m/s)
Visibility: 6 or more miles (10+ km)
Ceiling: ceiling and visibility are OK
Clouds: unknown
Weather: no significant weather observed at this time